createdAt,value
2022-12-28T00:01:39.509Z,97620.00
2022-12-28T00:06:40.432Z,97603.00
2022-12-28T00:11:41.187Z,97595.00
2022-12-28T00:16:43.275Z,97585.00
2022-12-28T00:21:45.906Z,97581.00
2022-12-28T00:26:46.756Z,97571.00
2022-12-28T00:31:47.821Z,97569.00
2022-12-28T00:37:09.059Z,97554.00
2022-12-28T00:42:13.494Z,97546.00
2022-12-28T00:47:14.489Z,97536.00
2022-12-28T00:52:15.278Z,97531.00
2022-12-28T00:57:16.037Z,97529.00
2022-12-28T01:02:16.910Z,97522.00
2022-12-28T01:07:17.873Z,97508.00
2022-12-28T01:12:18.665Z,97497.00
2022-12-28T01:17:19.413Z,97488.00
2022-12-28T01:22:20.684Z,97480.00
2022-12-28T01:27:21.498Z,97475.00
2022-12-28T01:32:22.519Z,97479.00
2022-12-28T01:37:23.341Z,97485.00
2022-12-28T01:42:25.161Z,97473.00
2022-12-28T01:47:33.538Z,97462.00
2022-12-28T01:52:50.689Z,97469.00
2022-12-28T01:57:58.683Z,97471.00
2022-12-28T02:03:09.989Z,97462.00
2022-12-28T02:08:18.555Z,97451.00
2022-12-28T02:13:21.632Z,97446.00
2022-12-28T02:18:24.631Z,97442.00
2022-12-28T02:25:12.316Z,97428.00
2022-12-28T02:30:14.553Z,97423.00
2022-12-28T02:35:33.111Z,97421.00
2022-12-28T02:40:40.559Z,97408.00
2022-12-28T02:46:03.045Z,97385.00
2022-12-28T02:52:58.547Z,97383.00
2022-12-28T02:59:44.507Z,97377.00
2022-12-28T03:05:53.269Z,97369.00
2022-12-28T03:11:03.454Z,97353.00
2022-12-28T03:16:07.806Z,97359.00
2022-12-28T03:21:28.847Z,97348.00
2022-12-28T03:26:51.882Z,97349.00
2022-12-28T03:31:53.557Z,97335.00
2022-12-28T03:37:16.643Z,97324.00
2022-12-28T03:42:54.215Z,97311.00
2022-12-28T03:47:56.551Z,97305.00
2022-12-28T03:52:58.435Z,97305.00
2022-12-28T03:57:59.882Z,97296.00
2022-12-28T04:03:03.404Z,97299.00
2022-12-28T04:08:04.477Z,97298.00
2022-12-28T04:13:05.545Z,97291.00
2022-12-28T04:18:18.447Z,97288.00
2022-12-28T04:23:19.773Z,97285.00
2022-12-28T04:28:21.475Z,97291.00
2022-12-28T04:33:45.051Z,97285.00
2022-12-28T04:38:46.029Z,97282.00
2022-12-28T04:43:46.932Z,97266.00
2022-12-28T04:48:47.667Z,97257.00
2022-12-28T04:53:49.485Z,97257.00
2022-12-28T04:58:58.811Z,97247.00
2022-12-28T05:04:00.049Z,97240.00
2022-12-28T05:09:01.207Z,97238.00
2022-12-28T05:14:02.044Z,97230.00
2022-12-28T05:19:03.025Z,97232.00
2022-12-28T05:24:04.603Z,97224.00
2022-12-28T05:29:05.776Z,97222.00
2022-12-28T05:34:06.510Z,97223.00
2022-12-28T05:39:07.625Z,97223.00
2022-12-28T05:44:08.424Z,97223.00
2022-12-28T05:49:09.416Z,97219.00
2022-12-28T05:54:10.141Z,97209.00
2022-12-28T05:59:12.876Z,97204.00
2022-12-28T06:04:17.571Z,97205.00
2022-12-28T06:09:18.361Z,97204.00
2022-12-28T06:14:19.693Z,97204.00
2022-12-28T06:19:20.468Z,97193.00
2022-12-28T06:24:21.216Z,97186.00
2022-12-28T06:29:21.991Z,97184.00
2022-12-28T06:34:22.801Z,97167.00
2022-12-28T06:39:23.538Z,97169.00
2022-12-28T06:44:24.433Z,97165.00
2022-12-28T06:49:25.172Z,97168.00
2022-12-28T06:54:25.916Z,97160.00
2022-12-28T06:59:26.626Z,97158.00
2022-12-28T07:04:27.414Z,97160.00
2022-12-28T07:09:28.140Z,97151.00
2022-12-28T07:14:29.080Z,97141.00
2022-12-28T07:19:29.909Z,97138.00
2022-12-28T07:24:30.726Z,97134.00
2022-12-28T07:29:31.456Z,97129.00
2022-12-28T07:34:32.908Z,97128.00
2022-12-28T07:39:34.880Z,97135.00
2022-12-28T07:44:38.256Z,97132.00
2022-12-28T07:49:39.847Z,97129.00
2022-12-28T07:54:40.637Z,97139.00
2022-12-28T07:59:41.433Z,97135.00
2022-12-28T08:04:45.119Z,97129.00
2022-12-28T08:09:48.309Z,97129.00
2022-12-28T08:14:49.134Z,97136.00
2022-12-28T08:19:49.894Z,97130.00
2022-12-28T08:24:50.881Z,97125.00
2022-12-28T08:29:51.652Z,97126.00
2022-12-28T08:34:52.644Z,97134.00
2022-12-28T08:39:53.771Z,97122.00
2022-12-28T08:44:54.625Z,97129.00
2022-12-28T08:49:55.373Z,97113.00
2022-12-28T08:54:56.264Z,97111.00
2022-12-28T08:59:57.027Z,97104.00
2022-12-28T09:04:57.776Z,97109.00
2022-12-28T09:09:58.556Z,97115.00
2022-12-28T09:14:59.636Z,97116.00
2022-12-28T09:20:00.889Z,97121.00
2022-12-28T09:25:01.625Z,97114.00
2022-12-28T09:30:02.855Z,97125.00
2022-12-28T09:35:04.489Z,97128.00
2022-12-28T09:40:06.654Z,97125.00
2022-12-28T09:45:12.160Z,97129.00
2022-12-28T09:50:28.948Z,97123.00
2022-12-28T09:55:32.242Z,97121.00
2022-12-28T10:00:40.704Z,97124.00
2022-12-28T10:05:41.954Z,97122.00
2022-12-28T10:10:48.716Z,97114.00
2022-12-28T10:15:51.897Z,97105.00
2022-12-28T10:20:54.163Z,97103.00
2022-12-28T10:25:57.985Z,97094.00
2022-12-28T10:31:08.290Z,97092.00
2022-12-28T10:36:13.452Z,97093.00
2022-12-28T10:41:17.137Z,97084.00
2022-12-28T10:46:23.225Z,97085.00
2022-12-28T10:51:28.334Z,97073.00
2022-12-28T10:56:43.397Z,97066.00
2022-12-28T11:01:44.308Z,97051.00
2022-12-28T11:06:59.569Z,97043.00
2022-12-28T11:13:31.379Z,97032.00
2022-12-28T11:18:37.796Z,97018.00
2022-12-28T11:23:39.059Z,97022.00
2022-12-28T11:28:42.088Z,97025.00
2022-12-28T11:33:50.970Z,97015.00
2022-12-28T11:38:54.420Z,97005.00
2022-12-28T11:43:58.354Z,97004.00
2022-12-28T11:49:19.682Z,96993.00
2022-12-28T11:54:37.273Z,96995.00
2022-12-28T11:59:38.087Z,96991.00
2022-12-28T12:04:41.575Z,96988.00
2022-12-28T12:09:45.657Z,96982.00
2022-12-28T12:15:14.459Z,96985.00
2022-12-28T12:21:38.425Z,96971.00
2022-12-28T12:26:48.314Z,96967.00
2022-12-28T12:32:14.223Z,96969.00
2022-12-28T12:37:44.126Z,96962.00
2022-12-28T12:49:25.189Z,96962.00
2022-12-28T12:56:10.598Z,96949.00
2022-12-28T13:04:46.317Z,96937.00
2022-12-28T13:09:48.688Z,96924.00
2022-12-28T13:14:58.431Z,96910.00
2022-12-28T13:20:17.113Z,96895.00
2022-12-28T13:25:32.086Z,96885.00
2022-12-28T13:30:33.039Z,96880.00
2022-12-28T13:35:33.925Z,96876.00
2022-12-28T13:40:37.193Z,96872.00
2022-12-28T13:45:37.967Z,96867.00
2022-12-28T13:50:40.920Z,96863.00
2022-12-28T13:56:06.456Z,96847.00
2022-12-28T14:01:16.186Z,96836.00
2022-12-28T14:06:18.981Z,96840.00
2022-12-28T14:11:20.519Z,96833.00
2022-12-28T14:16:22.247Z,96812.00
2022-12-28T14:21:41.499Z,96812.00
2022-12-28T14:26:49.882Z,96812.00
2022-12-28T14:31:56.570Z,96820.00
2022-12-28T14:36:58.196Z,96814.00
2022-12-28T14:42:01.131Z,96815.00
2022-12-28T14:47:02.755Z,96806.00
2022-12-28T14:52:43.367Z,96775.00
2022-12-28T14:57:44.585Z,96773.00
2022-12-28T15:02:46.994Z,96781.00
2022-12-28T15:07:48.110Z,96763.00
2022-12-28T15:12:49.016Z,96773.00
2022-12-28T15:17:49.849Z,96761.00
2022-12-28T15:22:51.324Z,96759.00
2022-12-28T15:27:52.346Z,96747.00
2022-12-28T15:32:53.267Z,96749.00
2022-12-28T15:37:54.016Z,96730.00
2022-12-28T15:42:54.809Z,96730.00
2022-12-28T15:47:55.633Z,96738.00
2022-12-28T15:52:56.567Z,96724.00
2022-12-28T15:57:57.460Z,96721.00
2022-12-28T16:02:58.646Z,96709.00
2022-12-28T16:07:59.495Z,96710.00
2022-12-28T16:13:00.288Z,96717.00
2022-12-28T16:18:01.296Z,96721.00
2022-12-28T16:23:02.068Z,96724.00
2022-12-28T16:28:03.001Z,96725.00
2022-12-28T16:33:03.949Z,96726.00
2022-12-28T16:38:05.347Z,96723.00
2022-12-28T16:43:06.562Z,96738.00
2022-12-28T16:48:11.916Z,96723.00
2022-12-28T16:53:12.648Z,96720.00
2022-12-28T16:58:13.880Z,96717.00
2022-12-28T17:03:14.769Z,96705.00
2022-12-28T17:08:15.867Z,96703.00
2022-12-28T17:13:17.835Z,96708.00
2022-12-28T17:18:18.591Z,96710.00
2022-12-28T17:23:19.415Z,96703.00
2022-12-28T17:28:21.678Z,96697.00
2022-12-28T17:33:22.505Z,96688.00
2022-12-28T17:38:23.332Z,96663.00
2022-12-28T17:43:24.223Z,96668.00
2022-12-28T17:48:27.134Z,96654.00
2022-12-28T17:53:28.580Z,96651.00
2022-12-28T17:58:30.765Z,96648.00
2022-12-28T18:03:34.176Z,96637.00
2022-12-28T18:08:35.240Z,96630.00
2022-12-28T18:13:40.808Z,96621.00
2022-12-28T18:18:42.362Z,96608.00
2022-12-28T18:23:47.401Z,96594.00
2022-12-28T18:28:48.483Z,96589.00
2022-12-28T18:33:49.265Z,96579.00
2022-12-28T18:38:50.180Z,96579.00
2022-12-28T18:43:51.523Z,96573.00
2022-12-28T18:48:52.386Z,96565.00
2022-12-28T18:53:53.145Z,96556.00
2022-12-28T18:58:56.353Z,96554.00
2022-12-28T19:03:59.877Z,96549.00
2022-12-28T19:09:02.987Z,96561.00
2022-12-28T19:14:06.386Z,96550.00
2022-12-28T19:19:07.280Z,96551.00
2022-12-28T19:24:26.285Z,96543.00
2022-12-28T19:29:27.155Z,96524.00
2022-12-28T19:34:27.980Z,96528.00
2022-12-28T19:39:28.697Z,96535.00
2022-12-28T19:44:29.514Z,96529.00
2022-12-28T19:49:30.310Z,96522.00
2022-12-28T19:54:31.316Z,96509.00
2022-12-28T19:59:32.143Z,96509.00
2022-12-28T20:04:33.523Z,96493.00
2022-12-28T20:09:34.297Z,96494.00
2022-12-28T20:14:35.074Z,96490.00
2022-12-28T20:19:35.987Z,96489.00
2022-12-28T20:24:36.822Z,96486.00
2022-12-28T20:29:37.762Z,96464.00
2022-12-28T20:34:38.732Z,96462.00
2022-12-28T20:39:39.566Z,96446.00
2022-12-28T20:44:40.342Z,96453.00
2022-12-28T20:49:41.091Z,96446.00
2022-12-28T20:54:42.137Z,96432.00
2022-12-28T20:59:43.048Z,96425.00
2022-12-28T21:04:43.871Z,96430.00
2022-12-28T21:09:49.875Z,96414.00
2022-12-28T21:14:50.651Z,96398.00
2022-12-28T21:19:51.444Z,96409.00
2022-12-28T21:24:52.229Z,96407.00
2022-12-28T21:29:53.106Z,96396.00
2022-12-28T21:34:53.837Z,96405.00
2022-12-28T21:39:54.643Z,96396.00
2022-12-28T21:44:55.460Z,96397.00
2022-12-28T21:49:56.307Z,96379.00
2022-12-28T21:54:57.141Z,96377.00
2022-12-28T22:05:02.678Z,96394.00
2022-12-28T22:10:23.617Z,96393.00
2022-12-28T22:15:44.587Z,96379.00
2022-12-28T22:20:46.457Z,96370.00
2022-12-28T22:25:48.712Z,96365.00
2022-12-28T22:30:49.509Z,96371.00
2022-12-28T22:35:50.301Z,96380.00
2022-12-28T22:40:58.179Z,96366.00
2022-12-28T22:46:01.168Z,96375.00
2022-12-28T22:51:08.088Z,96347.00
2022-12-28T22:56:11.526Z,96355.00
2022-12-28T23:01:16.544Z,96348.00
2022-12-28T23:06:19.297Z,96343.00
2022-12-28T23:11:38.582Z,96355.00
2022-12-28T23:16:39.410Z,96337.00
2022-12-28T23:21:58.379Z,96338.00
2022-12-28T23:27:18.171Z,96325.00
2022-12-28T23:32:19.055Z,96321.00
2022-12-28T23:37:19.855Z,96320.00
2022-12-28T23:42:20.948Z,96312.00
2022-12-28T23:47:21.759Z,96322.00
2022-12-28T23:52:26.064Z,96314.00
2022-12-28T23:57:27.394Z,96314.00
